createdAt,value
2017-07-16T00:02:10.406Z,99408.48
2017-07-16T00:04:39.944Z,99415.38
2017-07-16T00:07:09.546Z,99408.58
2017-07-16T00:09:39.071Z,99413.70
2017-07-16T00:12:08.604Z,99412.86
2017-07-16T00:14:38.182Z,99413.05
2017-07-16T00:17:07.707Z,99413.80
2017-07-16T00:19:37.247Z,99408.63
2017-07-16T00:22:06.775Z,99404.78
2017-07-16T00:24:36.466Z,99403.82
2017-07-16T00:27:06.010Z,99404.18
2017-07-16T00:29:35.542Z,99401.02
2017-07-16T00:32:05.081Z,99399.59
2017-07-16T00:34:34.623Z,99400.22
2017-07-16T00:37:04.247Z,99404.39
2017-07-16T00:39:33.781Z,99398.36
2017-07-16T00:42:03.307Z,99399.53
2017-07-16T00:44:32.849Z,99402.31
2017-07-16T00:47:02.394Z,99396.34
2017-07-16T00:49:31.927Z,99400.47
2017-07-16T00:52:01.465Z,99394.73
2017-07-16T00:54:31.008Z,99400.95
2017-07-16T00:57:00.546Z,99400.11
2017-07-16T00:59:30.061Z,99400.58
2017-07-16T01:01:59.598Z,99399.06
2017-07-16T01:04:29.135Z,99396.69
2017-07-16T01:06:58.671Z,99399.39
2017-07-16T01:09:28.231Z,99404.22
2017-07-16T01:11:57.762Z,99399.98
2017-07-16T01:14:27.285Z,99399.52
2017-07-16T01:16:56.814Z,99397.73
2017-07-16T01:19:26.373Z,99400.50
2017-07-16T01:21:55.904Z,99407.89
2017-07-16T01:24:25.451Z,99405.25
2017-07-16T01:26:54.991Z,99408.75
2017-07-16T01:29:24.522Z,99410.08
2017-07-16T01:31:54.063Z,99408.43
2017-07-16T01:34:23.595Z,99413.19
2017-07-16T01:36:53.129Z,99413.02
2017-07-16T01:39:22.675Z,99410.55
2017-07-16T01:41:52.245Z,99409.05
2017-07-16T01:44:21.774Z,99406.22
2017-07-16T01:46:51.306Z,99400.05
2017-07-16T01:49:20.914Z,99405.56
2017-07-16T01:51:50.471Z,99402.30
2017-07-16T01:54:20.019Z,99405.73
2017-07-16T01:56:49.200Z,99404.47
2017-07-16T01:59:18.735Z,99399.55
2017-07-16T02:01:48.278Z,99407.26
2017-07-16T02:04:17.817Z,99405.08
2017-07-16T02:06:47.354Z,99407.49
2017-07-16T02:09:16.913Z,99410.61
2017-07-16T02:11:46.454Z,99407.16
2017-07-16T02:14:15.969Z,99411.60
2017-07-16T02:16:45.513Z,99407.48
2017-07-16T02:19:15.037Z,99412.48
2017-07-16T02:21:44.574Z,99413.68
2017-07-16T02:24:14.105Z,99407.86
2017-07-16T02:26:43.638Z,99414.24
2017-07-16T02:29:13.169Z,99415.25
2017-07-16T02:31:42.697Z,99417.05
2017-07-16T02:34:12.233Z,99417.23
2017-07-16T02:36:41.788Z,99414.11
2017-07-16T02:39:11.316Z,99417.34
2017-07-16T02:41:40.850Z,99414.52
2017-07-16T02:44:10.472Z,99410.20
2017-07-16T02:46:39.987Z,99417.41
2017-07-16T02:49:09.515Z,99422.77
2017-07-16T02:51:39.064Z,99416.44
2017-07-16T02:54:08.596Z,99420.42
2017-07-16T02:56:38.135Z,99427.73
2017-07-16T02:59:07.714Z,99424.69
2017-07-16T03:01:37.245Z,99426.89
2017-07-16T03:04:06.778Z,99427.39
2017-07-16T03:06:36.314Z,99422.63
2017-07-16T03:09:05.844Z,99422.66
2017-07-16T03:11:35.370Z,99428.11
2017-07-16T03:14:04.909Z,99429.87
2017-07-16T03:16:34.437Z,99427.08
2017-07-16T03:19:03.982Z,99425.11
2017-07-16T03:21:33.512Z,99430.28
2017-07-16T03:24:03.070Z,99428.97
2017-07-16T03:26:32.619Z,99430.64
2017-07-16T03:29:01.971Z,99433.26
2017-07-16T03:31:31.517Z,99428.14
2017-07-16T03:34:01.049Z,99434.09
2017-07-16T03:36:30.593Z,99435.50
2017-07-16T03:39:00.116Z,99440.00
2017-07-16T03:41:29.662Z,99446.80
2017-07-16T03:43:59.205Z,99450.45
2017-07-16T03:46:28.739Z,99448.21
2017-07-16T03:48:58.279Z,99454.30
2017-07-16T03:51:27.827Z,99458.66
2017-07-16T03:53:57.353Z,99465.45
2017-07-16T03:56:26.888Z,99460.84
2017-07-16T03:58:56.428Z,99458.33
2017-07-16T04:01:25.978Z,99461.66
2017-07-16T04:03:55.501Z,99467.30
2017-07-16T04:06:25.077Z,99467.13
2017-07-16T04:08:54.614Z,99466.67
2017-07-16T04:11:24.139Z,99465.43
2017-07-16T04:13:53.668Z,99467.25
2017-07-16T04:16:23.202Z,99468.27
2017-07-16T04:18:52.734Z,99467.37
2017-07-16T04:21:22.768Z,99464.50
2017-07-16T04:23:52.305Z,99469.34
2017-07-16T04:26:21.838Z,99476.39
2017-07-16T04:28:52.311Z,99476.77
2017-07-16T04:31:21.833Z,99477.86
2017-07-16T04:33:51.390Z,99480.23
2017-07-16T04:36:20.922Z,99479.00
2017-07-16T04:38:50.446Z,99483.84
2017-07-16T04:41:19.980Z,99487.17
2017-07-16T04:43:49.527Z,99492.37
2017-07-16T04:46:19.041Z,99493.20
2017-07-16T04:48:48.585Z,99493.39
2017-07-16T04:51:18.176Z,99500.47
2017-07-16T04:53:47.990Z,99495.88
2017-07-16T04:56:17.525Z,99503.27
2017-07-16T04:58:47.954Z,99497.84
2017-07-16T05:01:17.500Z,99501.11
2017-07-16T05:03:47.031Z,99503.08
2017-07-16T05:06:16.573Z,99505.03
2017-07-16T05:08:46.176Z,99509.14
2017-07-16T05:11:15.703Z,99504.27
2017-07-16T05:13:45.249Z,99515.14
2017-07-16T05:16:14.775Z,99519.15
2017-07-16T05:18:44.305Z,99521.92
2017-07-16T05:21:13.838Z,99512.20
2017-07-16T05:23:43.406Z,99519.47
2017-07-16T05:26:12.934Z,99521.63
2017-07-16T05:28:42.473Z,99517.61
2017-07-16T05:31:12.087Z,99522.70
2017-07-16T05:33:41.629Z,99526.59
2017-07-16T05:36:11.169Z,99535.09
2017-07-16T05:38:40.693Z,99541.66
2017-07-16T05:41:10.247Z,99539.56
2017-07-16T05:43:39.788Z,99541.54
2017-07-16T05:46:10.333Z,99536.68
2017-07-16T05:48:39.856Z,99541.91
2017-07-16T05:51:09.109Z,99541.53
2017-07-16T05:53:38.649Z,99542.04
2017-07-16T05:56:08.177Z,99545.08
2017-07-16T05:58:37.449Z,99543.33
2017-07-16T06:01:06.692Z,99542.00
2017-07-16T06:03:35.932Z,99546.38
2017-07-16T06:06:05.189Z,99546.28
2017-07-16T06:08:34.439Z,99549.25
2017-07-16T06:11:04.121Z,99549.30
2017-07-16T06:13:33.381Z,99546.99
2017-07-16T06:16:02.626Z,99550.41
2017-07-16T06:18:32.173Z,99551.61
2017-07-16T06:21:01.406Z,99555.14
2017-07-16T06:23:30.656Z,99553.91
2017-07-16T06:25:59.906Z,99555.55
2017-07-16T06:28:29.185Z,99557.58
2017-07-16T06:30:58.447Z,99553.64
2017-07-16T06:33:27.694Z,99554.61
2017-07-16T06:35:58.583Z,99563.36
2017-07-16T06:38:27.809Z,99561.86
2017-07-16T06:40:57.091Z,99564.58
2017-07-16T06:43:26.333Z,99564.03
2017-07-16T06:45:55.606Z,99570.08
2017-07-16T06:48:24.852Z,99574.02
2017-07-16T06:50:54.126Z,99577.70
2017-07-16T06:53:23.384Z,99577.55
2017-07-16T06:55:52.645Z,99578.21
2017-07-16T06:58:21.886Z,99585.56
2017-07-16T07:00:51.140Z,99584.61
2017-07-16T07:03:20.389Z,99577.08
2017-07-16T07:05:49.670Z,99582.26
2017-07-16T07:08:18.910Z,99581.81
2017-07-16T07:10:48.157Z,99582.78
2017-07-16T07:13:17.437Z,99573.87
2017-07-16T07:15:46.695Z,99572.81
2017-07-16T07:18:15.935Z,99579.36
2017-07-16T07:20:45.208Z,99584.29
2017-07-16T07:23:14.283Z,99584.70
2017-07-16T07:25:43.562Z,99575.53
2017-07-16T07:28:12.800Z,99578.55
2017-07-16T07:30:42.100Z,99577.45
2017-07-16T07:33:11.375Z,99577.11
2017-07-16T07:35:40.631Z,99576.75
2017-07-16T07:38:09.913Z,99572.06
2017-07-16T07:40:39.162Z,99566.73
2017-07-16T07:43:08.437Z,99571.16
2017-07-16T07:45:37.683Z,99574.17
2017-07-16T07:48:07.009Z,99576.09
2017-07-16T07:50:36.274Z,99575.05
2017-07-16T07:53:05.526Z,99577.97
2017-07-16T07:55:34.778Z,99580.98
2017-07-16T07:58:04.049Z,99580.19
2017-07-16T08:00:33.290Z,99571.02
2017-07-16T08:03:02.579Z,99574.08
2017-07-16T08:05:31.825Z,99573.13
2017-07-16T08:08:01.086Z,99572.34
2017-07-16T08:10:30.334Z,99573.29
2017-07-16T08:12:59.583Z,99574.55
2017-07-16T08:15:28.847Z,99567.75
2017-07-16T08:17:58.082Z,99569.89
2017-07-16T08:20:27.351Z,99569.45
2017-07-16T08:22:56.594Z,99568.13
2017-07-16T08:25:25.839Z,99566.75
2017-07-16T08:27:55.114Z,99567.07
2017-07-16T08:30:24.358Z,99566.57
2017-07-16T08:32:53.623Z,99558.93
2017-07-16T08:35:23.666Z,99563.79
2017-07-16T08:37:52.926Z,99561.77
2017-07-16T08:40:22.338Z,99555.27
2017-07-16T08:42:51.578Z,99561.29
2017-07-16T08:45:20.827Z,99563.24
2017-07-16T08:47:50.097Z,99556.13
2017-07-16T08:50:19.357Z,99551.55
2017-07-16T08:52:48.595Z,99552.33
2017-07-16T08:55:17.865Z,99547.38
2017-07-16T08:57:47.100Z,99550.52
2017-07-16T09:00:16.354Z,99544.33
2017-07-16T09:02:45.594Z,99536.81
2017-07-16T09:05:15.295Z,99540.79
2017-07-16T09:07:44.577Z,99536.13
2017-07-16T09:10:13.834Z,99542.61
2017-07-16T09:12:43.094Z,99543.13
2017-07-16T09:15:12.333Z,99545.53
2017-07-16T09:17:41.607Z,99540.22
2017-07-16T09:20:10.851Z,99537.33
2017-07-16T09:22:40.094Z,99540.89
2017-07-16T09:25:09.369Z,99531.37
2017-07-16T09:27:38.606Z,99530.39
2017-07-16T09:30:07.850Z,99535.03
2017-07-16T09:32:37.091Z,99533.92
2017-07-16T09:35:06.338Z,99542.58
2017-07-16T09:37:35.590Z,99538.58
2017-07-16T09:40:04.993Z,99538.16
2017-07-16T09:42:34.235Z,99533.14
2017-07-16T09:45:03.493Z,99528.23
2017-07-16T09:47:32.770Z,99528.00
2017-07-16T09:50:02.025Z,99527.81
2017-07-16T09:52:31.272Z,99517.83
2017-07-16T09:55:00.529Z,99525.28
2017-07-16T09:57:29.773Z,99528.42
2017-07-16T09:59:59.024Z,99524.02
2017-07-16T10:02:28.259Z,99522.17
2017-07-16T10:04:57.501Z,99523.33
2017-07-16T10:07:26.773Z,99519.08
2017-07-16T10:09:56.058Z,99517.13
2017-07-16T10:12:25.422Z,99519.75
2017-07-16T10:14:55.594Z,99515.54
2017-07-16T10:17:24.849Z,99511.73
2017-07-16T10:19:54.094Z,99505.66
2017-07-16T10:22:23.325Z,99507.09
2017-07-16T10:24:52.571Z,99500.52
2017-07-16T10:27:21.823Z,99501.88
2017-07-16T10:29:51.066Z,99495.08
2017-07-16T10:32:20.341Z,99493.61
2017-07-16T10:34:49.658Z,99485.86
2017-07-16T10:37:18.891Z,99488.32
2017-07-16T10:39:48.141Z,99485.56
2017-07-16T10:42:17.419Z,99484.83
2017-07-16T10:44:46.663Z,99476.20
2017-07-16T10:47:15.917Z,99481.61
2017-07-16T10:49:45.254Z,99483.05
2017-07-16T10:52:14.511Z,99479.10
2017-07-16T10:54:43.759Z,99481.50
2017-07-16T10:57:13.041Z,99488.98
2017-07-16T10:59:42.289Z,99487.57
2017-07-16T11:02:11.544Z,99488.27
2017-07-16T11:04:40.808Z,99485.50
2017-07-16T11:07:10.043Z,99482.43
2017-07-16T11:09:39.297Z,99480.09
2017-07-16T11:12:08.555Z,99477.03
2017-07-16T11:14:37.821Z,99474.33
2017-07-16T11:17:07.093Z,99470.74
2017-07-16T11:19:36.336Z,99475.11
2017-07-16T11:22:05.581Z,99472.10
2017-07-16T11:24:34.827Z,99477.27
2017-07-16T11:27:04.084Z,99483.25
2017-07-16T11:29:33.338Z,99469.88
2017-07-16T11:32:02.591Z,99462.64
2017-07-16T11:34:32.395Z,99475.86
2017-07-16T11:37:01.654Z,99460.52
2017-07-16T11:39:30.895Z,99457.00
2017-07-16T11:42:00.877Z,99454.71
2017-07-16T11:44:30.126Z,99463.30
2017-07-16T11:46:59.378Z,99455.77
2017-07-16T11:49:28.630Z,99448.73
2017-07-16T11:51:57.882Z,99442.57
2017-07-16T11:54:27.133Z,99443.88
2017-07-16T11:56:56.431Z,99440.91
2017-07-16T11:59:25.666Z,99441.47
2017-07-16T12:01:54.937Z,99432.95
2017-07-16T12:04:24.250Z,99426.72
2017-07-16T12:06:53.536Z,99434.17
2017-07-16T12:09:22.794Z,99429.25
2017-07-16T12:11:52.042Z,99425.74
2017-07-16T12:14:21.334Z,99418.30
2017-07-16T12:16:50.573Z,99417.84
2017-07-16T12:19:19.834Z,99419.72
2017-07-16T12:21:49.094Z,99415.13
2017-07-16T12:24:18.349Z,99413.19
2017-07-16T12:26:47.737Z,99416.89
2017-07-16T12:29:16.958Z,99411.06
2017-07-16T12:31:46.225Z,99408.40
2017-07-16T12:34:15.478Z,99410.75
2017-07-16T12:36:44.723Z,99409.02
2017-07-16T12:39:13.972Z,99408.95
2017-07-16T12:41:43.233Z,99403.02
2017-07-16T12:44:12.457Z,99398.47
2017-07-16T12:46:41.703Z,99399.53
2017-07-16T12:49:10.958Z,99395.05
2017-07-16T12:51:40.261Z,99393.14
2017-07-16T12:54:09.523Z,99394.39
2017-07-16T12:56:38.449Z,99388.52
2017-07-16T12:59:07.725Z,99398.16
2017-07-16T13:01:36.965Z,99394.33
2017-07-16T13:04:06.229Z,99394.52
2017-07-16T13:06:35.465Z,99390.56
2017-07-16T13:09:04.120Z,99388.40
2017-07-16T13:11:33.372Z,99384.80
2017-07-16T13:14:02.625Z,99385.90
2017-07-16T13:16:31.874Z,99381.33
2017-07-16T13:19:01.957Z,99378.75
2017-07-16T13:21:31.214Z,99379.58
2017-07-16T13:24:00.454Z,99372.30
2017-07-16T13:26:29.736Z,99374.85
2017-07-16T13:28:59.002Z,99378.98
2017-07-16T13:31:28.254Z,99370.63
2017-07-16T13:33:57.497Z,99372.28
2017-07-16T13:36:26.736Z,99363.92
2017-07-16T13:38:55.978Z,99366.00
2017-07-16T13:41:25.253Z,99355.24
2017-07-16T13:43:54.498Z,99363.11
2017-07-16T13:46:23.741Z,99355.59
2017-07-16T13:48:53.226Z,99355.31
2017-07-16T13:51:22.676Z,99354.17
2017-07-16T13:53:52.133Z,99348.23
2017-07-16T13:56:21.576Z,99348.58
2017-07-16T13:58:51.025Z,99344.85
2017-07-16T14:01:20.492Z,99346.03
2017-07-16T14:03:49.938Z,99337.81
2017-07-16T14:06:19.378Z,99338.22
2017-07-16T14:08:48.822Z,99340.37
2017-07-16T14:11:18.279Z,99331.02
2017-07-16T14:13:47.725Z,99332.75
2017-07-16T14:16:17.180Z,99329.14
2017-07-16T14:18:46.623Z,99330.42
2017-07-16T14:21:16.061Z,99319.02
2017-07-16T14:23:45.567Z,99326.39
2017-07-16T14:26:15.018Z,99326.19
2017-07-16T14:28:44.470Z,99323.63
2017-07-16T14:31:13.948Z,99324.34
2017-07-16T14:33:43.410Z,99321.59
2017-07-16T14:36:12.848Z,99323.42
2017-07-16T14:38:42.308Z,99318.89
2017-07-16T14:41:11.817Z,99315.19
2017-07-16T14:43:41.259Z,99316.75
2017-07-16T14:46:10.718Z,99312.70
2017-07-16T14:48:40.174Z,99316.91
2017-07-16T14:51:09.630Z,99309.77
2017-07-16T14:53:39.076Z,99308.14
2017-07-16T14:56:08.518Z,99304.47
2017-07-16T14:58:37.974Z,99310.03
2017-07-16T15:01:07.459Z,99304.34
2017-07-16T15:03:36.928Z,99309.26
2017-07-16T15:06:06.375Z,99307.42
2017-07-16T15:08:35.822Z,99315.46
2017-07-16T15:11:05.269Z,99303.51
2017-07-16T15:13:34.711Z,99301.00
2017-07-16T15:16:04.154Z,99299.25
2017-07-16T15:18:34.504Z,99292.33
2017-07-16T15:21:03.977Z,99295.97
2017-07-16T15:23:33.418Z,99285.41
2017-07-16T15:26:02.850Z,99280.14
2017-07-16T15:28:32.298Z,99280.93
2017-07-16T15:31:01.754Z,99275.08
2017-07-16T15:33:31.209Z,99273.54
2017-07-16T15:36:00.668Z,99273.39
2017-07-16T15:38:30.113Z,99271.61
2017-07-16T15:40:59.558Z,99275.21
2017-07-16T15:43:29.021Z,99270.56
2017-07-16T15:45:58.482Z,99272.03
2017-07-16T15:48:27.942Z,99274.86
2017-07-16T15:50:57.374Z,99270.64
2017-07-16T15:53:26.848Z,99265.88
2017-07-16T15:55:56.289Z,99261.02
2017-07-16T15:58:25.762Z,99260.64
2017-07-16T16:00:55.215Z,99256.23
2017-07-16T16:03:24.842Z,99257.86
2017-07-16T16:05:54.314Z,99255.19
2017-07-16T16:08:24.174Z,99253.22
2017-07-16T16:10:53.626Z,99250.54
2017-07-16T16:13:23.077Z,99256.55
2017-07-16T16:15:52.573Z,99258.83
2017-07-16T16:18:22.031Z,99259.33
2017-07-16T16:20:51.477Z,99252.73
2017-07-16T16:23:21.041Z,99252.08
2017-07-16T16:25:50.523Z,99251.05
2017-07-16T16:28:19.975Z,99250.87
2017-07-16T16:30:49.422Z,99256.67
2017-07-16T16:33:18.872Z,99244.59
2017-07-16T16:35:48.321Z,99245.48
2017-07-16T16:38:17.853Z,99248.83
2017-07-16T16:40:47.294Z,99248.33
2017-07-16T16:43:16.733Z,99248.45
2017-07-16T16:45:46.275Z,99235.62
2017-07-16T16:48:15.714Z,99246.41
2017-07-16T16:50:45.146Z,99247.98
2017-07-16T16:53:14.606Z,99246.34
2017-07-16T16:55:44.045Z,99250.38
2017-07-16T16:58:13.513Z,99244.63
2017-07-16T17:00:42.986Z,99249.09
2017-07-16T17:03:12.430Z,99241.83
2017-07-16T17:05:41.900Z,99240.03
2017-07-16T17:08:11.324Z,99241.31
2017-07-16T17:10:40.779Z,99246.38
2017-07-16T17:13:10.231Z,99248.89
2017-07-16T17:15:39.684Z,99241.53
2017-07-16T17:18:09.140Z,99238.20
2017-07-16T17:20:38.602Z,99227.38
2017-07-16T17:23:08.069Z,99232.55
2017-07-16T17:25:37.548Z,99231.57
2017-07-16T17:28:06.973Z,99226.12
2017-07-16T17:30:36.431Z,99224.73
2017-07-16T17:33:06.350Z,99227.94
2017-07-16T17:35:35.794Z,99221.17
2017-07-16T17:38:05.329Z,99225.31
2017-07-16T17:40:34.795Z,99224.69
2017-07-16T17:43:04.392Z,99219.91
2017-07-16T17:45:33.837Z,99218.33
2017-07-16T17:48:03.272Z,99221.15
2017-07-16T17:50:32.723Z,99224.39
2017-07-16T17:53:02.186Z,99221.56
2017-07-16T17:55:31.633Z,99223.78
2017-07-16T17:58:01.062Z,99223.29
2017-07-16T18:00:30.541Z,99223.77
2017-07-16T18:03:00.003Z,99226.77
2017-07-16T18:05:29.457Z,99229.59
2017-07-16T18:07:58.942Z,99227.40
2017-07-16T18:10:28.406Z,99224.70
2017-07-16T18:12:58.253Z,99225.69
2017-07-16T18:15:27.799Z,99229.38
2017-07-16T18:17:57.268Z,99227.03
2017-07-16T18:20:26.713Z,99226.16
2017-07-16T18:22:56.145Z,99230.55
2017-07-16T18:25:25.593Z,99226.77
2017-07-16T18:27:55.047Z,99222.87
2017-07-16T18:30:24.484Z,99222.92
2017-07-16T18:32:53.946Z,99228.73
2017-07-16T18:35:23.398Z,99227.61
2017-07-16T18:37:52.847Z,99226.65
2017-07-16T18:40:22.300Z,99224.75
2017-07-16T18:42:51.754Z,99228.34
2017-07-16T18:45:21.307Z,99226.09
2017-07-16T18:47:50.730Z,99222.81
2017-07-16T18:50:20.176Z,99233.70
2017-07-16T18:52:49.627Z,99234.45
2017-07-16T18:55:19.080Z,99242.36
2017-07-16T18:57:48.519Z,99242.84
2017-07-16T19:00:17.978Z,99250.72
2017-07-16T19:02:47.430Z,99249.78
2017-07-16T19:05:17.139Z,99250.19
2017-07-16T19:07:47.476Z,99248.57
2017-07-16T19:10:16.921Z,99252.72
2017-07-16T19:12:46.363Z,99253.24
2017-07-16T19:15:15.816Z,99260.00
2017-07-16T19:17:45.260Z,99257.66
2017-07-16T19:20:14.714Z,99262.03
2017-07-16T19:22:44.199Z,99256.59
2017-07-16T19:25:13.646Z,99260.84
2017-07-16T19:27:43.347Z,99266.19
2017-07-16T19:30:12.822Z,99259.69
2017-07-16T19:32:42.261Z,99260.33
2017-07-16T19:35:11.790Z,99264.14
2017-07-16T19:37:41.297Z,99266.80
2017-07-16T19:40:10.740Z,99269.03
2017-07-16T19:42:40.182Z,99271.41
2017-07-16T19:45:09.638Z,99272.49
2017-07-16T19:47:39.097Z,99273.19
2017-07-16T19:50:08.540Z,99275.20
2017-07-16T19:52:38.954Z,99275.52
2017-07-16T19:55:08.417Z,99280.89
2017-07-16T19:57:37.847Z,99276.72
2017-07-16T20:00:07.296Z,99275.48
2017-07-16T20:02:36.597Z,99270.81
2017-07-16T20:05:06.056Z,99275.85
2017-07-16T20:07:35.514Z,99276.32
2017-07-16T20:10:04.966Z,99273.67
2017-07-16T20:12:34.423Z,99275.34
2017-07-16T20:15:03.885Z,99270.88
2017-07-16T20:17:33.224Z,99279.80
2017-07-16T20:20:02.678Z,99272.62
2017-07-16T20:22:32.129Z,99277.34
2017-07-16T20:25:01.567Z,99271.67
2017-07-16T20:27:31.019Z,99275.66
2017-07-16T20:30:00.470Z,99276.69
2017-07-16T20:32:29.914Z,99281.36
2017-07-16T20:34:59.368Z,99281.25
2017-07-16T20:37:28.817Z,99282.78
2017-07-16T20:39:58.275Z,99284.61
2017-07-16T20:42:27.718Z,99280.16
2017-07-16T20:44:57.202Z,99284.47
2017-07-16T20:47:26.655Z,99284.68
2017-07-16T20:49:56.092Z,99278.03
2017-07-16T20:52:25.542Z,99272.65
2017-07-16T20:54:55.008Z,99275.03
2017-07-16T20:57:24.446Z,99278.19
2017-07-16T20:59:53.914Z,99278.66
2017-07-16T21:02:23.359Z,99276.20
2017-07-16T21:04:52.820Z,99278.69
2017-07-16T21:07:22.268Z,99279.01
2017-07-16T21:09:51.714Z,99278.88
2017-07-16T21:12:21.175Z,99276.88
2017-07-16T21:14:50.622Z,99274.84
2017-07-16T21:17:20.062Z,99275.81
2017-07-16T21:19:49.516Z,99268.48
2017-07-16T21:22:18.985Z,99269.72
2017-07-16T21:24:48.469Z,99270.53
2017-07-16T21:27:17.926Z,99274.49
2017-07-16T21:29:47.477Z,99273.95
2017-07-16T21:32:16.909Z,99278.95
2017-07-16T21:34:46.363Z,99278.94
2017-07-16T21:37:15.797Z,99275.67
2017-07-16T21:39:45.242Z,99274.44
2017-07-16T21:42:14.985Z,99280.81
2017-07-16T21:44:44.437Z,99283.53
2017-07-16T21:47:13.945Z,99277.80
2017-07-16T21:49:43.413Z,99288.79
2017-07-16T21:52:12.978Z,99279.80
2017-07-16T21:54:42.703Z,99286.03
2017-07-16T21:57:12.446Z,99280.86
2017-07-16T21:59:41.914Z,99286.93
2017-07-16T22:02:11.646Z,99286.11
2017-07-16T22:04:41.377Z,99290.41
2017-07-16T22:07:11.118Z,99288.45
2017-07-16T22:09:40.870Z,99296.14
2017-07-16T22:12:10.593Z,99299.61
2017-07-16T22:14:40.330Z,99300.27
2017-07-16T22:17:10.081Z,99295.36
2017-07-16T22:19:39.817Z,99288.95
2017-07-16T22:22:09.567Z,99290.70
2017-07-16T22:24:39.305Z,99288.53
2017-07-16T22:27:09.030Z,99289.48
2017-07-16T22:29:38.766Z,99287.30
2017-07-16T22:32:08.521Z,99288.81
2017-07-16T22:34:38.272Z,99285.66
2017-07-16T22:37:07.988Z,99291.08
2017-07-16T22:39:37.837Z,99290.66
2017-07-16T22:42:08.358Z,99293.25
2017-07-16T22:44:38.125Z,99286.72
2017-07-16T22:47:07.865Z,99290.95
2017-07-16T22:49:37.664Z,99289.19
2017-07-16T22:52:07.617Z,99294.20
2017-07-16T22:54:37.353Z,99293.79
2017-07-16T22:57:07.107Z,99291.48
2017-07-16T22:59:36.834Z,99290.25
2017-07-16T23:02:06.605Z,99297.03
2017-07-16T23:04:36.342Z,99295.92
2017-07-16T23:07:06.107Z,99295.34
2017-07-16T23:09:35.854Z,99298.02
2017-07-16T23:12:05.572Z,99291.21
2017-07-16T23:14:35.313Z,99297.00
2017-07-16T23:17:05.034Z,99290.74
2017-07-16T23:19:34.782Z,99291.41
2017-07-16T23:22:04.525Z,99290.58
2017-07-16T23:24:34.114Z,99286.61
2017-07-16T23:27:03.876Z,99287.14
2017-07-16T23:29:33.610Z,99283.59
2017-07-16T23:32:03.336Z,99281.91
2017-07-16T23:34:33.086Z,99286.92
2017-07-16T23:37:02.813Z,99283.25
2017-07-16T23:39:32.560Z,99278.72
2017-07-16T23:42:02.346Z,99281.66
2017-07-16T23:44:32.097Z,99286.55
2017-07-16T23:47:01.824Z,99283.14
2017-07-16T23:49:31.565Z,99283.19
2017-07-16T23:52:01.321Z,99278.59
2017-07-16T23:54:31.062Z,99275.78
2017-07-16T23:57:00.789Z,99277.06
2017-07-16T23:59:30.523Z,99277.48
